Time;durP1;ratioP1;P1;durP2;ratioP2;P2;SDS_P1;SDS_P2;PMS_P1;PMS_P2;Temp;Humidity;BMP_temperature;BMP_pressure;BME280_temperature;BME280_humidity;BME280_pressure;Samples;Min_cycle;Max_cycle;Signal;HPM_P1;HPM_P2
2021/05/15 00:01:33;;;;;;;15.25;9.35;;;9.40;99.90;;;;;;5121435;27;20194;-78
2021/05/15 00:03:59;;;;;;;15.43;9.73;;;9.40;99.90;;;;;;5144929;27;20131;-78
2021/05/15 00:06:28;;;;;;;16.63;9.90;;;9.40;99.90;;;;;;5144616;27;20041;-78
2021/05/15 00:08:54;;;;;;;15.93;9.45;;;9.30;99.90;;;;;;5132036;27;20030;-76
2021/05/15 00:11:20;;;;;;;14.07;9.63;;;9.20;99.90;;;;;;5145278;27;20050;-76
2021/05/15 00:13:46;;;;;;;16.58;9.73;;;9.30;99.90;;;;;;5122360;27;20023;-77
2021/05/15 00:16:12;;;;;;;17.85;9.73;;;9.30;99.90;;;;;;5138821;27;20103;-78
2021/05/15 00:18:39;;;;;;;14.80;10.23;;;9.40;99.90;;;;;;5120184;27;20049;-77
2021/05/15 00:21:06;;;;;;;18.55;9.48;;;9.30;99.90;;;;;;5119662;27;20063;-78
2021/05/15 00:23:33;;;;;;;15.55;10.48;;;9.20;99.90;;;;;;5126890;27;20389;-78
2021/05/15 00:25:59;;;;;;;14.05;9.75;;;9.10;99.90;;;;;;5143251;27;20070;-76
2021/05/15 00:28:26;;;;;;;13.43;10.00;;;9.10;99.90;;;;;;5124525;27;20047;-78
2021/05/15 00:30:52;;;;;;;13.88;9.65;;;9.00;99.90;;;;;;5122526;27;20081;-77
2021/05/15 00:33:18;;;;;;;13.93;9.98;;;8.90;99.90;;;;;;5123663;27;20066;-78
2021/05/15 00:35:43;;;;;;;17.20;10.63;;;8.80;99.90;;;;;;5126582;27;20059;-76
2021/05/15 00:38:10;;;;;;;13.65;10.75;;;8.80;99.90;;;;;;5144530;27;20087;-77
2021/05/15 00:40:37;;;;;;;12.38;9.75;;;8.80;99.90;;;;;;5123018;27;20066;-77
2021/05/15 00:43:07;;;;;;;13.90;10.18;;;8.70;99.90;;;;;;5139949;27;20116;-77
2021/05/15 00:45:33;;;;;;;17.42;10.27;;;8.70;99.90;;;;;;5124828;27;20037;-76
2021/05/15 00:48:00;;;;;;;17.08;9.65;;;8.60;99.90;;;;;;5142051;27;20061;-77
2021/05/15 00:50:26;;;;;;;12.75;9.23;;;8.60;99.90;;;;;;5137679;27;20039;-76
2021/05/15 00:52:51;;;;;;;16.92;9.75;;;8.60;99.90;;;;;;5142361;27;20087;-76
2021/05/15 00:55:17;;;;;;;13.07;9.50;;;8.50;99.90;;;;;;5119923;27;20038;-78
2021/05/15 00:57:43;;;;;;;18.95;10.00;;;8.50;99.90;;;;;;5125811;27;20486;-78
2021/05/15 01:00:12;;;;;;;17.70;9.85;;;8.50;99.90;;;;;;5138902;27;20034;-78
2021/05/15 01:02:38;;;;;;;13.40;9.68;;;8.60;99.90;;;;;;5148366;27;20031;-77
2021/05/15 01:05:06;;;;;;;14.75;9.52;;;8.60;99.90;;;;;;5106851;27;20053;-79
2021/05/15 01:07:32;;;;;;;17.83;10.80;;;8.60;99.90;;;;;;5144203;27;20042;-77
2021/05/15 01:09:57;;;;;;;15.38;10.55;;;8.60;99.90;;;;;;5151292;27;20030;-78
2021/05/15 01:12:23;;;;;;;15.88;10.45;;;8.60;99.90;;;;;;5145668;27;20081;-77
2021/05/15 01:14:49;;;;;;;18.40;10.60;;;8.50;99.90;;;;;;5145497;27;20114;-78
2021/05/15 01:17:15;;;;;;;14.63;10.07;;;8.50;99.90;;;;;;5143202;27;20046;-78
2021/05/15 01:19:41;;;;;;;15.20;10.63;;;8.40;99.90;;;;;;5147238;27;20335;-77
2021/05/15 01:22:14;;;;;;;16.08;10.35;;;8.30;99.90;;;;;;5150608;27;20129;-77
2021/05/15 01:24:42;;;;;;;16.20;9.77;;;8.20;99.90;;;;;;5145438;27;20489;-78
2021/05/15 01:27:09;;;;;;;16.90;9.95;;;8.10;99.90;;;;;;5143912;27;20031;-78
2021/05/15 01:29:35;;;;;;;15.07;10.13;;;8.00;99.90;;;;;;5144667;27;20023;-79
2021/05/15 01:32:02;;;;;;;15.90;10.55;;;7.90;99.90;;;;;;5127053;27;20370;-77
2021/05/15 01:34:28;;;;;;;18.13;10.68;;;7.80;99.90;;;;;;5121990;27;20043;-77
2021/05/15 01:36:54;;;;;;;13.85;9.90;;;7.80;99.90;;;;;;5124986;27;20035;-77
2021/05/15 01:39:20;;;;;;;14.38;10.02;;;7.70;99.90;;;;;;5146595;27;20477;-77
2021/05/15 01:41:46;;;;;;;16.80;10.48;;;7.70;99.90;;;;;;5128703;27;20477;-78
2021/05/15 01:44:12;;;;;;;13.48;10.07;;;7.70;99.90;;;;;;5144034;27;20060;-77
2021/05/15 01:46:38;;;;;;;16.00;11.20;;;7.70;99.90;;;;;;5123616;27;20047;-78
2021/05/15 01:49:05;;;;;;;16.85;10.70;;;7.70;99.90;;;;;;5142935;27;20042;-77
2021/05/15 01:51:32;;;;;;;14.38;10.55;;;7.70;99.90;;;;;;5124433;27;20035;-78
2021/05/15 01:53:58;;;;;;;13.55;10.38;;;7.70;99.90;;;;;;5124737;27;20463;-77
2021/05/15 01:56:29;;;;;;;14.63;10.68;;;7.80;99.90;;;;;;5143581;27;20118;-77
2021/05/15 01:58:56;;;;;;;15.10;10.63;;;7.90;99.90;;;;;;5121202;27;20031;-78
2021/05/15 02:01:24;;;;;;;17.65;11.00;;;7.90;99.90;;;;;;5123743;27;20149;-76
2021/05/15 02:03:50;;;;;;;19.73;11.27;;;8.00;99.90;;;;;;5122648;27;20476;-77
2021/05/15 02:06:17;;;;;;;18.13;12.25;;;8.00;99.90;;;;;;5119797;27;20039;-78
2021/05/15 02:08:45;;;;;;;22.30;12.93;;;8.00;99.90;;;;;;5125938;27;20031;-79
2021/05/15 02:11:17;;;;;;;22.70;13.77;;;8.00;99.90;;;;;;5118012;27;20027;-78
2021/05/15 02:13:47;;;;;;;17.70;12.75;;;8.10;99.90;;;;;;5144661;27;20143;-77
2021/05/15 02:16:14;;;;;;;22.25;13.05;;;8.20;99.90;;;;;;5133969;27;20042;-77
2021/05/15 02:18:40;;;;;;;19.48;12.95;;;8.20;99.90;;;;;;5142518;27;20114;-77
2021/05/15 02:21:07;;;;;;;21.63;13.10;;;8.20;99.90;;;;;;5104992;27;20067;-79
2021/05/15 02:23:33;;;;;;;18.38;12.60;;;8.20;99.90;;;;;;5144234;27;20030;-78
2021/05/15 02:25:59;;;;;;;18.23;12.05;;;8.30;99.90;;;;;;5143904;27;20067;-79
2021/05/15 02:28:25;;;;;;;18.00;11.77;;;8.30;99.90;;;;;;5140263;27;20372;-78
2021/05/15 02:30:51;;;;;;;18.02;12.05;;;8.30;99.90;;;;;;5145733;27;20045;-77
2021/05/15 02:33:18;;;;;;;18.83;12.05;;;8.30;99.90;;;;;;5145835;27;20034;-79
2021/05/15 02:35:44;;;;;;;21.60;11.95;;;8.40;99.90;;;;;;5124143;27;20031;-79
2021/05/15 02:38:12;;;;;;;14.93;11.52;;;8.40;99.90;;;;;;5148654;27;20035;-78
2021/05/15 02:40:39;;;;;;;18.92;11.88;;;8.40;99.90;;;;;;5143559;27;20041;-77
2021/05/15 02:43:05;;;;;;;16.15;11.65;;;8.40;99.90;;;;;;5140637;27;20038;-78
2021/05/15 02:45:31;;;;;;;22.30;12.18;;;8.40;99.90;;;;;;5152951;27;20042;-78
2021/05/15 02:47:57;;;;;;;16.20;11.15;;;8.40;99.90;;;;;;5124575;27;20038;-79
2021/05/15 02:50:24;;;;;;;17.77;12.23;;;8.40;99.90;;;;;;5139282;27;20080;-77
2021/05/15 02:52:51;;;;;;;17.00;12.18;;;8.30;99.90;;;;;;5126536;27;20041;-79
2021/05/15 02:55:20;;;;;;;19.08;12.77;;;8.40;99.90;;;;;;5123122;27;20362;-78
2021/05/15 02:57:46;;;;;;;19.02;11.73;;;8.40;99.90;;;;;;5124444;27;20039;-79
2021/05/15 03:00:15;;;;;;;18.35;11.70;;;8.40;99.90;;;;;;5142371;27;20072;-78
2021/05/15 03:02:41;;;;;;;16.98;10.80;;;8.50;99.90;;;;;;5143877;27;20031;-78
2021/05/15 03:05:13;;;;;;;19.40;11.63;;;8.50;99.90;;;;;;5128810;27;20045;-78
2021/05/15 03:07:41;;;;;;;16.38;11.48;;;8.50;99.90;;;;;;5119045;27;20114;-79
2021/05/15 03:10:09;;;;;;;15.68;11.07;;;8.50;99.90;;;;;;5124379;27;20118;-78
2021/05/15 03:12:35;;;;;;;16.73;11.98;;;8.40;99.90;;;;;;5145509;27;20079;-79
2021/05/15 03:15:04;;;;;;;18.00;11.85;;;8.40;99.90;;;;;;5140350;27;20039;-79
2021/05/15 03:17:32;;;;;;;18.40;11.40;;;8.40;99.90;;;;;;5124546;27;20111;-77
2021/05/15 03:19:57;;;;;;;16.98;11.93;;;8.40;99.90;;;;;;5143686;27;20039;-77
2021/05/15 03:22:23;;;;;;;17.80;11.48;;;8.40;99.90;;;;;;5142986;27;20065;-77
2021/05/15 03:24:50;;;;;;;15.23;11.07;;;8.40;99.90;;;;;;5141627;27;20065;-77
2021/05/15 03:27:16;;;;;;;20.05;12.00;;;8.40;99.90;;;;;;5132389;27;20031;-78
2021/05/15 03:29:42;;;;;;;17.88;12.38;;;8.50;99.90;;;;;;5144036;27;20084;-78
2021/05/15 03:32:10;;;;;;;16.27;11.40;;;8.40;99.90;;;;;;5124753;27;20043;-77
2021/05/15 03:34:36;;;;;;;21.33;12.07;;;8.40;99.90;;;;;;5141623;27;20042;-78
2021/05/15 03:37:02;;;;;;;23.48;11.95;;;8.40;99.90;;;;;;5146426;27;20027;-79
2021/05/15 03:39:28;;;;;;;16.38;11.25;;;8.40;99.90;;;;;;5143101;27;20042;-79
2021/05/15 03:41:54;;;;;;;19.42;12.00;;;8.40;99.90;;;;;;5120852;27;20031;-78
2021/05/15 03:44:20;;;;;;;19.77;12.23;;;8.30;99.90;;;;;;5122084;27;20131;-78
2021/05/15 03:46:45;;;;;;;18.42;11.93;;;8.30;99.90;;;;;;5117544;27;20398;-77
2021/05/15 03:49:11;;;;;;;18.80;11.25;;;8.20;99.90;;;;;;5142532;27;20056;-78
2021/05/15 03:51:39;;;;;;;18.92;12.05;;;8.20;99.90;;;;;;5128231;27;20117;-79
2021/05/15 03:54:05;;;;;;;18.83;11.45;;;8.10;99.90;;;;;;5120290;27;20032;-78
2021/05/15 03:56:31;;;;;;;17.10;11.60;;;8.10;99.90;;;;;;5143258;27;20514;-79
2021/05/15 03:58:56;;;;;;;19.05;11.68;;;8.10;99.90;;;;;;5142888;27;20165;-78
2021/05/15 04:01:22;;;;;;;20.20;12.00;;;8.10;99.90;;;;;;5138826;27;20035;-77
2021/05/15 04:03:48;;;;;;;15.90;11.88;;;8.10;99.90;;;;;;5143839;27;20100;-77
2021/05/15 04:06:15;;;;;;;19.58;11.52;;;8.10;99.90;;;;;;5145580;27;20087;-78
2021/05/15 04:08:41;;;;;;;14.75;11.57;;;8.20;99.90;;;;;;5122698;27;20534;-78
2021/05/15 04:11:07;;;;;;;17.25;11.73;;;8.20;99.90;;;;;;5143168;27;20043;-78
2021/05/15 04:16:02;;;;;;;16.60;11.77;;;8.30;99.90;;;;;;5147064;27;20495;-78
2021/05/15 04:18:30;;;;;;;19.13;12.57;;;8.40;99.90;;;;;;5133725;27;20107;-78
2021/05/15 04:20:56;;;;;;;15.68;11.18;;;8.30;99.90;;;;;;5145670;27;20484;-77
2021/05/15 04:23:22;;;;;;;19.65;12.10;;;8.50;99.90;;;;;;5147130;27;20367;-79
2021/05/15 04:25:49;;;;;;;21.73;11.88;;;8.50;99.90;;;;;;5132321;27;20070;-79
2021/05/15 04:28:16;;;;;;;18.48;12.27;;;8.60;99.90;;;;;;5126703;27;20058;-78
2021/05/15 04:30:42;;;;;;;16.45;11.43;;;8.60;99.90;;;;;;5123372;27;20079;-78
2021/05/15 04:33:08;;;;;;;19.42;11.07;;;8.60;99.90;;;;;;5127824;27;20039;-77
2021/05/15 04:35:34;;;;;;;17.38;11.15;;;8.80;99.90;;;;;;5126516;27;20043;-78
2021/05/15 04:38:01;;;;;;;18.52;11.73;;;8.90;99.90;;;;;;5128388;27;20060;-79
2021/05/15 04:40:29;;;;;;;16.45;11.23;;;9.00;99.90;;;;;;5107614;27;20510;-78
2021/05/15 04:42:55;;;;;;;15.38;11.02;;;9.10;99.90;;;;;;5106454;27;20043;-77
2021/05/15 04:45:21;;;;;;;15.30;10.68;;;9.20;99.90;;;;;;5152666;27;20032;-77
2021/05/15 04:47:47;;;;;;;20.90;12.43;;;9.30;99.90;;;;;;5145514;27;20035;-77
2021/05/15 04:50:13;;;;;;;27.42;13.52;;;9.30;99.90;;;;;;5147819;27;20051;-77
2021/05/15 04:52:39;;;;;;;20.77;12.52;;;9.40;99.90;;;;;;5142349;27;20057;-78
2021/05/15 04:55:06;;;;;;;20.88;13.88;;;9.50;99.90;;;;;;5141467;27;20059;-78
2021/05/15 04:57:32;;;;;;;22.50;14.13;;;9.60;99.90;;;;;;5134136;27;20057;-77
2021/05/15 04:59:58;;;;;;;20.88;14.45;;;9.70;99.90;;;;;;5137226;27;20471;-79
2021/05/15 05:02:23;;;;;;;20.80;13.38;;;9.80;99.90;;;;;;5135601;27;20035;-78
2021/05/15 05:04:49;;;;;;;23.17;13.13;;;9.80;99.90;;;;;;5134609;27;20110;-78
2021/05/15 05:07:15;;;;;;;21.55;13.73;;;9.80;99.90;;;;;;5135571;27;20119;-79
2021/05/15 05:09:41;;;;;;;23.75;14.38;;;9.90;99.90;;;;;;5132133;27;20062;-78
2021/05/15 05:12:08;;;;;;;20.80;13.82;;;9.90;99.90;;;;;;5134539;27;20109;-78
2021/05/15 05:14:34;;;;;;;21.13;14.57;;;9.90;99.90;;;;;;5135031;27;20039;-78
2021/05/15 05:17:00;;;;;;;19.73;13.68;;;9.90;99.90;;;;;;5125790;27;20139;-79
2021/05/15 05:19:27;;;;;;;21.23;12.50;;;9.80;99.90;;;;;;5103830;28;20035;-78
2021/05/15 05:21:55;;;;;;;22.52;14.45;;;9.70;99.90;;;;;;5119933;27;20027;-79
2021/05/15 05:24:21;;;;;;;21.27;13.68;;;9.70;99.90;;;;;;5128744;27;20080;-78
2021/05/15 05:26:46;;;;;;;20.30;13.57;;;9.70;99.90;;;;;;5138119;27;20095;-79
2021/05/15 05:29:12;;;;;;;20.52;14.57;;;9.60;99.90;;;;;;5125012;27;20103;-79
2021/05/15 05:31:44;;;;;;;22.55;14.15;;;9.60;99.90;;;;;;5149824;27;20038;-78
2021/05/15 05:34:10;;;;;;;23.83;13.27;;;9.70;99.90;;;;;;5137382;27;20119;-79
2021/05/15 05:36:37;;;;;;;21.08;13.50;;;9.60;99.90;;;;;;5123535;27;20046;-78
2021/05/15 05:39:08;;;;;;;21.00;13.23;;;9.60;99.90;;;;;;5135939;27;20043;-79
2021/05/15 05:41:34;;;;;;;20.98;13.48;;;9.60;99.90;;;;;;5133495;27;20043;-79
2021/05/15 05:44:00;;;;;;;22.23;13.15;;;9.70;99.90;;;;;;5149247;27;20053;-78
2021/05/15 05:46:25;;;;;;;19.60;12.70;;;9.60;99.90;;;;;;5146930;27;20031;-77
2021/05/15 05:48:51;;;;;;;19.15;12.98;;;9.70;99.90;;;;;;5126932;27;20129;-77
2021/05/15 05:51:17;;;;;;;21.88;13.40;;;9.70;99.90;;;;;;5152934;27;20448;-77
2021/05/15 05:53:43;;;;;;;18.75;13.55;;;9.70;99.90;;;;;;5154927;27;20053;-75
2021/05/15 05:56:09;;;;;;;19.85;12.82;;;9.80;99.90;;;;;;5143912;27;20031;-76
2021/05/15 05:58:34;;;;;;;21.25;13.20;;;9.90;99.90;;;;;;5132231;27;20053;-78
2021/05/15 06:01:00;;;;;;;24.90;13.25;;;10.00;99.90;;;;;;5152181;27;20047;-79
2021/05/15 06:03:26;;;;;;;20.88;14.80;;;10.00;99.90;;;;;;5133954;27;20042;-78
2021/05/15 06:05:53;;;;;;;25.95;14.63;;;10.10;99.90;;;;;;5131402;27;20481;-76
2021/05/15 06:08:19;;;;;;;22.17;14.75;;;10.30;99.90;;;;;;5143190;27;20058;-76
2021/05/15 06:10:46;;;;;;;25.80;15.30;;;10.30;99.90;;;;;;5127513;27;20062;-77
2021/05/15 06:13:13;;;;;;;28.55;15.20;;;10.40;99.90;;;;;;5133146;27;20039;-77
2021/05/15 06:15:40;;;;;;;26.55;14.05;;;10.60;99.90;;;;;;5116473;27;20067;-76
2021/05/15 06:18:06;;;;;;;28.17;15.35;;;10.60;99.90;;;;;;5149271;27;20087;-76
2021/05/15 06:20:32;;;;;;;22.35;14.30;;;10.60;99.90;;;;;;5133782;27;20054;-76
2021/05/15 06:22:58;;;;;;;24.50;13.80;;;10.90;99.90;;;;;;5133821;27;20046;-77
2021/05/15 06:25:24;;;;;;;20.67;12.63;;;10.90;99.90;;;;;;5133770;27;20042;-77
2021/05/15 06:27:50;;;;;;;20.65;12.80;;;11.10;99.90;;;;;;5146488;27;20051;-77
2021/05/15 06:30:16;;;;;;;16.60;12.18;;;11.00;99.90;;;;;;5144880;27;20740;-76
2021/05/15 06:32:42;;;;;;;18.38;11.88;;;11.10;99.90;;;;;;5129955;27;20030;-76
2021/05/15 06:35:09;;;;;;;17.88;12.05;;;11.20;99.90;;;;;;5153341;27;20046;-76
2021/05/15 06:37:35;;;;;;;18.20;12.68;;;11.20;99.90;;;;;;5131033;27;20110;-76
2021/05/15 06:40:01;;;;;;;18.15;13.23;;;11.10;99.90;;;;;;5135061;27;20053;-76
2021/05/15 06:42:27;;;;;;;18.85;13.27;;;11.10;99.90;;;;;;5140377;27;20039;-76
2021/05/15 06:44:52;;;;;;;19.00;13.15;;;11.30;99.90;;;;;;5134499;27;20043;-76
2021/05/15 06:47:18;;;;;;;16.48;13.15;;;11.30;99.90;;;;;;5120165;27;20493;-76
2021/05/15 06:49:44;;;;;;;21.98;13.88;;;11.30;99.90;;;;;;5125035;27;20512;-75
2021/05/15 06:52:11;;;;;;;20.63;13.55;;;11.30;99.90;;;;;;5142713;27;20057;-76
2021/05/15 06:54:37;;;;;;;22.15;14.38;;;11.40;99.90;;;;;;5121813;27;20043;-75
2021/05/15 06:57:03;;;;;;;21.88;13.82;;;11.40;99.90;;;;;;5127707;27;20046;-76
2021/05/15 06:59:29;;;;;;;19.40;13.43;;;11.40;99.90;;;;;;5146979;27;20035;-75
2021/05/15 07:01:55;;;;;;;20.30;14.55;;;11.40;99.90;;;;;;5128124;27;20080;-75
2021/05/15 07:04:21;;;;;;;23.02;14.27;;;11.30;99.90;;;;;;5147703;27;20537;-74
2021/05/15 07:06:48;;;;;;;21.52;14.95;;;11.30;99.90;;;;;;5151344;27;20026;-74
2021/05/15 07:09:13;;;;;;;22.17;14.52;;;11.50;99.90;;;;;;5150404;27;20052;-74
2021/05/15 07:11:39;;;;;;;22.27;14.07;;;11.50;99.90;;;;;;5130510;27;20039;-75
2021/05/15 07:14:05;;;;;;;23.63;14.65;;;11.40;99.90;;;;;;5141590;27;20055;-75
2021/05/15 07:16:31;;;;;;;21.48;15.02;;;11.40;99.90;;;;;;5132877;27;20062;-75
2021/05/15 07:18:56;;;;;;;21.77;15.02;;;11.50;99.90;;;;;;5121860;27;20122;-75
2021/05/15 07:21:22;;;;;;;23.00;14.95;;;11.50;99.90;;;;;;5150444;27;20519;-75
2021/05/15 07:23:48;;;;;;;24.48;15.55;;;11.50;99.90;;;;;;5133052;27;20167;-75
2021/05/15 07:26:13;;;;;;;25.70;15.00;;;11.60;99.90;;;;;;5132707;27;20485;-75
2021/05/15 07:28:39;;;;;;;24.10;16.13;;;11.60;99.90;;;;;;5125739;27;20047;-76
2021/05/15 07:31:05;;;;;;;24.15;15.82;;;11.60;99.90;;;;;;5118950;27;20055;-75
2021/05/15 07:33:31;;;;;;;21.13;15.20;;;11.70;99.90;;;;;;5147719;27;20038;-77
2021/05/15 07:35:57;;;;;;;25.02;15.48;;;11.70;99.90;;;;;;5111497;27;20042;-76
2021/05/15 07:38:23;;;;;;;25.80;15.60;;;11.70;99.90;;;;;;5127196;27;20415;-76
2021/05/15 07:40:49;;;;;;;24.40;15.13;;;11.70;99.90;;;;;;5130642;27;20496;-76
2021/05/15 07:43:22;;;;;;;20.95;14.52;;;11.70;99.90;;;;;;5117563;27;20474;-75
2021/05/15 07:45:48;;;;;;;24.35;15.10;;;11.60;99.90;;;;;;5153019;27;20054;-75
2021/05/15 07:48:14;;;;;;;19.70;14.35;;;11.50;99.90;;;;;;5132923;27;20046;-76
2021/05/15 07:50:40;;;;;;;20.77;14.85;;;11.60;99.90;;;;;;5134696;27;20050;-77
2021/05/15 07:53:06;;;;;;;21.17;15.25;;;11.60;99.90;;;;;;5152685;27;20102;-77
2021/05/15 07:55:32;;;;;;;25.50;15.85;;;11.70;99.90;;;;;;5147404;27;20035;-76
2021/05/15 07:57:58;;;;;;;21.55;15.82;;;11.70;99.90;;;;;;5146223;27;20370;-78
2021/05/15 08:00:24;;;;;;;19.77;14.48;;;11.90;99.90;;;;;;5123347;27;20039;-78
2021/05/15 08:02:49;;;;;;;20.23;14.40;;;11.90;99.90;;;;;;5124432;27;20034;-77
2021/05/15 08:05:15;;;;;;;21.88;15.32;;;11.90;99.90;;;;;;5125751;27;20418;-77
2021/05/15 08:07:41;;;;;;;18.48;14.63;;;11.80;99.90;;;;;;5148152;27;20384;-78
2021/05/15 08:10:08;;;;;;;14.20;7.40;;;11.70;99.90;;;;;;5121131;27;20374;-80
2021/05/15 08:12:35;;;;;;;17.33;10.40;;;12.20;99.90;;;;;;5146109;27;20033;-75
2021/05/15 08:15:03;;;;;;;24.52;12.57;;;12.70;99.90;;;;;;5130633;27;20069;-75
2021/05/15 08:17:28;;;;;;;20.05;14.63;;;12.90;99.90;;;;;;5147205;27;20088;-75
2021/05/15 08:19:54;;;;;;;22.60;14.73;;;12.70;99.90;;;;;;5134016;27;20443;-76
2021/05/15 08:22:20;;;;;;;20.73;14.73;;;12.60;99.90;;;;;;5136711;27;20047;-76
2021/05/15 08:24:46;;;;;;;21.17;13.98;;;12.40;99.90;;;;;;5118251;27;20099;-77
2021/05/15 08:27:12;;;;;;;18.20;13.60;;;12.30;99.90;;;;;;5146665;27;20038;-75
2021/05/15 08:29:38;;;;;;;25.33;14.57;;;12.10;99.90;;;;;;5122954;27;20108;-78
2021/05/15 08:32:11;;;;;;;21.33;15.45;;;12.10;99.90;;;;;;5128526;27;20063;-79
2021/05/15 08:34:40;;;;;;;18.95;14.60;;;12.10;99.90;;;;;;5123121;27;20062;-78
2021/05/15 08:37:06;;;;;;;22.08;14.35;;;12.00;99.90;;;;;;5097276;27;20351;-78
2021/05/15 08:39:31;;;;;;;23.45;13.68;;;12.10;99.90;;;;;;5148056;27;20171;-78
2021/05/15 08:41:57;;;;;;;20.38;14.27;;;12.00;99.90;;;;;;5137701;27;20497;-78
2021/05/15 08:44:27;;;;;;;21.58;14.55;;;11.80;99.90;;;;;;5156822;27;20071;-78
2021/05/15 08:46:56;;;;;;;17.35;13.55;;;12.00;99.90;;;;;;5155784;27;20035;-79
2021/05/15 08:49:23;;;;;;;20.75;13.73;;;11.90;99.90;;;;;;5156342;27;20030;-78
2021/05/15 08:51:52;;;;;;;18.20;13.43;;;12.10;99.90;;;;;;5137248;27;20062;-79
2021/05/15 08:54:20;;;;;;;21.15;13.93;;;12.10;99.90;;;;;;5137244;27;20057;-78
2021/05/15 08:56:49;;;;;;;20.35;13.55;;;12.20;99.90;;;;;;5137528;27;20035;-79
2021/05/15 08:59:15;;;;;;;18.63;14.57;;;12.20;99.90;;;;;;5137726;27;20046;-79
2021/05/15 09:01:45;;;;;;;18.73;13.98;;;12.00;99.90;;;;;;5136935;27;20047;-81
2021/05/15 09:04:11;;;;;;;22.55;15.20;;;12.30;99.90;;;;;;5136629;27;20066;-77
2021/05/15 09:06:42;;;;;;;18.05;13.57;;;12.30;99.90;;;;;;5122111;27;20494;-78
2021/05/15 09:09:08;;;;;;;21.80;14.15;;;12.20;99.90;;;;;;5116773;27;20490;-77
2021/05/15 09:11:34;;;;;;;20.90;14.23;;;12.30;99.90;;;;;;5133423;27;20053;-78
2021/05/15 09:14:00;;;;;;;17.90;10.38;;;12.30;99.90;;;;;;5120770;27;20039;-76
2021/05/15 09:16:26;;;;;;;20.85;14.20;;;12.50;99.90;;;;;;5146461;27;20042;-78
2021/05/15 09:18:53;;;;;;;20.48;13.73;;;12.60;99.90;;;;;;5116693;27;20047;-78
2021/05/15 09:21:23;;;;;;;25.30;13.95;;;12.60;99.90;;;;;;5148624;27;20052;-80
2021/05/15 09:23:49;;;;;;;24.20;14.27;;;12.50;99.90;;;;;;5117913;27;20495;-77
2021/05/15 09:26:15;;;;;;;22.05;14.85;;;12.60;99.90;;;;;;5116615;27;20148;-76
2021/05/15 09:28:44;;;;;;;22.98;14.93;;;12.60;99.90;;;;;;5144642;27;20122;-78
2021/05/15 09:31:18;;;;;;;24.90;15.57;;;12.50;99.90;;;;;;5134632;27;20119;-78
2021/05/15 09:33:54;;;;;;;29.40;15.40;;;12.60;99.90;;;;;;5154430;27;20037;-80
2021/05/15 09:36:22;;;;;;;27.02;17.05;;;12.70;99.90;;;;;;5151091;27;20031;-80
2021/05/15 09:38:59;;;;;;;30.98;17.98;;;12.90;99.90;;;;;;5154574;27;20034;-79
2021/05/15 09:41:35;;;;;;;32.78;18.98;;;13.10;99.90;;;;;;5131249;27;20042;-77
2021/05/15 09:44:06;;;;;;;28.77;19.05;;;13.10;99.90;;;;;;5138553;27;20042;-77
2021/05/15 09:46:33;;;;;;;32.10;19.23;;;12.90;99.90;;;;;;5122842;27;20130;-78
2021/05/15 09:48:59;;;;;;;32.38;20.23;;;13.00;99.90;;;;;;5114571;27;20087;-78
2021/05/15 09:51:25;;;;;;;31.48;18.45;;;12.90;99.90;;;;;;5123161;27;20043;-77
2021/05/15 09:53:51;;;;;;;35.25;20.95;;;13.00;99.90;;;;;;5150307;27;20045;-78
2021/05/15 09:56:29;;;;;;;33.42;20.13;;;13.10;99.90;;;;;;5123672;27;20118;-78
2021/05/15 09:58:56;;;;;;;35.63;20.55;;;13.10;99.90;;;;;;5116024;27;20051;-78
2021/05/15 10:01:25;;;;;;;35.00;20.08;;;12.90;99.90;;;;;;5133680;27;20363;-79
2021/05/15 10:03:59;;;;;;;36.58;21.73;;;13.00;99.90;;;;;;5114930;27;20059;-79
2021/05/15 10:06:25;;;;;;;31.55;21.35;;;12.80;99.90;;;;;;5115777;27;20374;-79
2021/05/15 10:08:51;;;;;;;32.35;20.80;;;13.10;99.90;;;;;;5115663;27;20035;-78
2021/05/15 10:11:17;;;;;;;36.05;22.05;;;13.30;99.90;;;;;;5115026;27;20446;-78
2021/05/15 10:13:43;;;;;;;33.97;20.63;;;13.20;99.90;;;;;;5134244;27;20068;-78
2021/05/15 10:16:09;;;;;;;31.85;20.48;;;13.40;99.90;;;;;;5134020;27;20035;-79
2021/05/15 10:18:35;;;;;;;33.15;20.80;;;13.50;99.90;;;;;;5134244;27;20031;-80
2021/05/15 10:21:02;;;;;;;33.80;21.83;;;13.70;99.90;;;;;;5115631;27;20117;-78
2021/05/15 10:23:37;;;;;;;36.75;21.50;;;13.70;99.90;;;;;;5115017;27;20558;-80
2021/05/15 10:26:07;;;;;;;41.53;23.85;;;13.60;99.90;;;;;;5127940;27;20102;-80
2021/05/15 10:28:38;;;;;;;44.80;25.40;;;13.70;99.90;;;;;;5136031;27;20118;-80
2021/05/15 10:31:03;;;;;;;41.05;25.55;;;13.60;99.90;;;;;;5135401;27;20477;-80
2021/05/15 10:33:31;;;;;;;38.88;25.60;;;13.70;99.90;;;;;;5132050;27;20047;-80
2021/05/15 10:35:57;;;;;;;39.95;24.58;;;13.70;99.90;;;;;;5133429;27;20173;-80
2021/05/15 10:38:34;;;;;;;42.92;25.50;;;14.00;99.90;;;;;;5114904;27;20054;-80
2021/05/15 10:41:42;;;;;;;39.85;24.27;;;13.90;99.90;;;;;;5114854;27;20043;-80
2021/05/15 10:44:13;;;;;;;43.00;24.00;;;14.30;99.90;;;;;;5069907;28;20103;-80
2021/05/15 10:46:50;;;;;;;41.33;24.73;;;14.20;99.90;;;;;;5052270;28;20060;-80
2021/05/15 10:49:17;;;;;;;41.97;23.85;;;14.30;99.90;;;;;;5070219;28;20119;-80
2021/05/15 10:51:46;;;;;;;46.13;23.80;;;14.50;99.90;;;;;;5052870;28;20519;-80
2021/05/15 10:54:14;;;;;;;40.67;23.70;;;14.50;99.90;;;;;;5070085;28;20045;-80
2021/05/15 10:56:40;;;;;;;34.90;23.77;;;14.60;99.90;;;;;;5069786;28;20495;-80
2021/05/15 10:59:16;;;;;;;41.00;25.65;;;14.60;99.90;;;;;;5069780;28;20062;-80
2021/05/15 11:01:56;;;;;;;41.65;24.85;;;14.50;99.90;;;;;;5068829;28;20123;-81
2021/05/15 11:04:26;;;;;;;38.28;24.42;;;14.40;99.90;;;;;;5060092;28;20052;-80
2021/05/15 11:06:57;;;;;;;36.00;21.58;;;14.40;99.90;;;;;;5057054;28;20040;-81
2021/05/15 11:09:25;;;;;;;40.75;24.55;;;14.60;99.90;;;;;;5048180;28;20044;-81
2021/05/15 11:11:51;;;;;;;36.03;24.83;;;14.50;99.90;;;;;;5060429;28;20047;-80
2021/05/15 11:14:28;;;;;;;38.22;24.20;;;14.30;99.90;;;;;;5057918;28;20068;-80
2021/05/15 11:17:07;;;;;;;37.00;24.38;;;14.30;99.90;;;;;;5070949;27;20500;-78
2021/05/15 11:19:34;;;;;;;37.72;24.77;;;14.20;99.90;;;;;;5145664;27;20111;-79
2021/05/15 11:22:00;;;;;;;41.13;25.63;;;14.10;99.90;;;;;;5128937;27;20409;-79
2021/05/15 11:24:31;;;;;;;40.40;26.50;;;14.10;99.90;;;;;;5148069;27;20042;-78
2021/05/15 11:27:08;;;;;;;40.50;25.73;;;14.10;99.90;;;;;;5143664;27;20050;-79
2021/05/15 11:29:35;;;;;;;33.30;20.95;;;14.10;99.90;;;;;;5126722;27;20489;-78
2021/05/15 11:32:05;;;;;;;40.70;25.52;;;14.30;99.90;;;;;;5134951;27;20034;-80
2021/05/15 11:34:31;;;;;;;40.13;24.67;;;14.20;99.90;;;;;;5126335;27;20184;-78
2021/05/15 11:36:56;;;;;;;39.97;24.88;;;14.10;99.90;;;;;;5159575;27;20114;-80
2021/05/15 11:39:23;;;;;;;41.20;25.65;;;14.10;99.90;;;;;;5141142;27;20051;-81
2021/05/15 11:42:02;;;;;;;41.60;25.23;;;14.00;99.90;;;;;;5142020;27;20482;-80
2021/05/15 11:44:27;;;;;;;44.17;24.92;;;14.00;99.90;;;;;;5134705;27;20046;-78
2021/05/15 11:46:54;;;;;;;35.80;24.50;;;14.00;99.90;;;;;;5145264;27;20050;-79
2021/05/15 11:49:24;;;;;;;44.33;26.42;;;14.10;99.90;;;;;;5126152;27;20100;-80
2021/05/15 11:52:16;;;;;;;40.72;24.30;;;14.00;99.90;;;;;;5131832;27;20027;-80
2021/05/15 11:54:47;;;;;;;37.03;25.92;;;14.50;99.90;;;;;;5144172;27;20145;-79
2021/05/15 11:57:12;;;;;;;39.38;25.05;;;15.00;99.90;;;;;;5160381;27;20054;-80
2021/05/15 11:59:39;;;;;;;37.45;24.60;;;15.80;99.90;;;;;;5149006;27;20039;-80
2021/05/15 12:02:14;;;;;;;37.05;25.00;;;16.10;99.90;;;;;;5120980;27;20055;-80
2021/05/15 12:04:41;;;;;;;35.65;23.40;;;16.00;99.90;;;;;;5138392;27;20059;-80
2021/05/15 12:07:08;;;;;;;34.05;23.95;;;16.20;99.90;;;;;;5154671;27;20070;-79
2021/05/15 12:09:34;;;;;;;31.70;18.30;;;16.10;99.90;;;;;;5156138;27;20031;-80
2021/05/15 12:12:05;;;;;;;25.35;13.77;;;16.00;99.90;;;;;;5151452;27;20031;-80
2021/05/15 12:14:32;;;;;;;23.33;14.57;;;16.50;99.90;;;;;;5131760;27;20075;-81
2021/05/15 12:17:09;;;;;;;24.40;14.80;;;16.60;99.90;;;;;;5128622;27;20033;-82
2021/05/15 12:19:36;;;;;;;34.15;21.55;;;16.80;99.90;;;;;;5150903;27;20054;-80
2021/05/15 12:22:07;;;;;;;32.63;22.73;;;16.80;99.90;;;;;;5125533;27;20456;-80
2021/05/15 12:24:38;;;;;;;31.20;21.58;;;15.90;99.90;;;;;;5131507;27;20063;-79
2021/05/15 12:27:13;;;;;;;31.23;23.20;;;15.50;99.90;;;;;;5144246;27;20038;-79
2021/05/15 12:29:40;;;;;;;35.33;24.20;;;15.20;99.90;;;;;;5147783;27;20050;-80
2021/05/15 12:32:06;;;;;;;34.13;24.75;;;15.00;99.90;;;;;;5123439;27;20092;-80
2021/05/15 12:34:32;;;;;;;37.63;24.92;;;14.70;99.90;;;;;;5149177;27;20039;-76
2021/05/15 12:36:58;;;;;;;34.28;24.15;;;14.40;99.90;;;;;;5147747;27;20475;-78